JCI weather

New Century Aircenter Airport
Olathe, Kansas, United States

Public forecast

Using degrees Fahrenheit for public forecast. Weather courtesy of forecast.io.

Current aviation weather report (METAR) for New Century Aircenter Airport

Retrieved 2020/02/18 14:53 UTC (42 minutes ago):

KIXD 181453Z 36012KT 10SM FEW120 M01/M06 A3032 RMK AO2 SLP274 T10061056 53035

Aviation forecast (TAF) for New Century Aircenter Airport

Retrieved 2020/02/18 12:22 UTC (3 hours ago):

TAF KIXD 181120Z 1812/1912 35013G23KT P6SM SCT020 BKN120 FM181400 35010KT P6SM SCT200 FM190100 03005KT P6SM FEW200